Time;durP1;ratioP1;P1;durP2;ratioP2;P2;SDS_P1;SDS_P2;PMS_P1;PMS_P2;Temp;Humidity;BMP_temperature;BMP_pressure;BME280_temperature;BME280_humidity;BME280_pressure;Samples;Min_cycle;Max_cycle;Signal;HPM_P1;HPM_P2
2023/02/01 00:03:26;;;;;;;21.13;10.93;;;;;;;;;;21065206;28;20131;-60
2023/02/01 00:13:30;;;;;;;14.57;11.05;;;;;;;;;;21064729;28;20052;-60
2023/02/01 00:23:34;;;;;;;22.05;10.70;;;;;;;;;;21014965;28;20135;-58
2023/02/01 00:33:36;;;;;;;22.30;12.25;;;;;;;;;;21007385;28;20055;-60
2023/02/01 00:43:38;;;;;;;25.58;11.60;;;;;;;;;;21006612;28;20077;-56
2023/02/01 00:53:40;;;;;;;21.70;12.60;;;;;;;;;;21006161;28;20060;-55
2023/02/01 01:03:46;;;;;;;18.48;11.13;;;3.40;63.20;;;;;;21006430;28;20070;-60
2023/02/01 01:13:50;;;;;;;22.02;10.52;;;3.30;64.00;;;;;;21003178;28;20079;-56
2023/02/01 01:23:53;;;;;;;17.90;11.77;;;3.20;64.10;;;;;;21006257;28;20056;-59
2023/02/01 01:33:58;;;;;;;17.77;11.63;;;3.20;64.10;;;;;;21001563;28;20140;-60
2023/02/01 01:44:02;;;;;;;17.92;11.32;;;3.10;64.20;;;;;;21001544;28;20044;-60
2023/02/01 01:54:25;;;;;;;18.58;10.82;;;3.00;64.10;;;;;;21000518;28;20048;-57
2023/02/01 02:04:27;;;;;;;20.13;11.07;;;3.00;63.90;;;;;;21000920;28;20048;-61
2023/02/01 02:14:30;;;;;;;20.67;11.90;;;2.90;64.10;;;;;;21000657;28;20500;-56
2023/02/01 02:24:52;;;;;;;17.38;10.85;;;;;;;;;;21001049;28;20048;-60
2023/02/01 02:35:01;;;;;;;19.20;11.90;;;;;;;;;;20999721;28;20067;-57
2023/02/01 03:06:33;;;;;;;15.65;11.10;;;2.40;64.90;;;;;;20997334;28;20052;-59
2023/02/01 03:16:51;;;;;;;17.97;10.87;;;2.30;65.20;;;;;;20996183;28;20045;-58
2023/02/01 03:26:57;;;;;;;17.85;10.90;;;2.30;65.00;;;;;;20997065;28;20374;-59
2023/02/01 03:37:06;;;;;;;19.50;11.52;;;2.20;65.20;;;;;;20996632;28;20045;-59
2023/02/01 03:47:21;;;;;;;16.77;10.23;;;2.10;65.30;;;;;;20994939;28;20059;-61
2023/02/01 03:57:45;;;;;;;15.65;10.23;;;2.10;65.20;;;;;;21007593;28;20044;-59
2023/02/01 04:07:48;;;;;;;16.95;9.15;;;2.00;65.50;;;;;;21009834;28;20088;-56
2023/02/01 04:17:51;;;;;;;17.42;9.88;;;2.10;65.50;;;;;;21008741;28;20052;-54
2023/02/01 04:27:55;;;;;;;16.67;11.05;;;2.10;65.50;;;;;;21009514;28;20569;-55
2023/02/01 04:37:57;;;;;;;16.50;9.50;;;2.00;65.50;;;;;;21009034;28;20094;-55
2023/02/01 04:48:16;;;;;;;14.52;9.60;;;1.90;65.60;;;;;;21007892;28;20392;-59
2023/02/01 04:58:18;;;;;;;15.90;9.65;;;1.90;65.70;;;;;;21006238;28;20051;-57
2023/02/01 05:08:22;;;;;;;14.02;9.38;;;1.80;65.70;;;;;;21005528;28;20185;-57
2023/02/01 05:18:25;;;;;;;13.80;8.93;;;1.80;65.70;;;;;;21006356;28;20497;-56
2023/02/01 05:28:28;;;;;;;15.68;9.05;;;1.80;65.50;;;;;;21003118;28;20056;-59
2023/02/01 05:38:32;;;;;;;16.58;9.18;;;;;;;;;;21003485;28;20049;-59
2023/02/01 05:48:35;;;;;;;16.70;9.15;;;;;;;;;;21000954;28;20091;-58
2023/02/01 05:58:37;;;;;;;16.55;8.70;;;;;;;;;;21001906;28;20075;-59
2023/02/01 06:08:41;;;;;;;17.60;10.20;;;1.60;65.30;;;;;;21000750;28;20059;-56
2023/02/01 06:18:43;;;;;;;13.35;8.30;;;1.50;65.50;;;;;;20999691;28;20048;-57
2023/02/01 06:28:45;;;;;;;13.35;7.82;;;1.50;65.60;;;;;;21001156;28;20048;-58
2023/02/01 06:38:48;;;;;;;14.20;9.15;;;;;;;;;;20999262;28;20477;-56
2023/02/01 06:48:50;;;;;;;15.98;9.45;;;1.50;65.80;;;;;;20998687;28;20053;-59
2023/02/01 06:58:52;;;;;;;15.02;8.48;;;1.50;66.00;;;;;;20997344;28;20040;-57
2023/02/01 07:08:55;;;;;;;16.35;9.95;;;1.50;65.90;;;;;;20996299;28;20060;-58
2023/02/01 07:18:58;;;;;;;15.30;7.90;;;1.30;66.00;;;;;;20997142;28;20541;-59
2023/02/01 07:29:00;;;;;;;14.80;8.80;;;1.30;66.00;;;;;;21001665;28;20137;-59
2023/02/01 07:39:03;;;;;;;13.40;8.15;;;1.30;66.30;;;;;;21012000;28;20040;-59
2023/02/01 07:49:05;;;;;;;14.68;8.05;;;1.40;66.00;;;;;;21011500;28;20553;-61
2023/02/01 07:59:07;;;;;;;15.77;8.73;;;1.50;65.70;;;;;;21010683;28;20072;-58
2023/02/01 08:09:10;;;;;;;14.05;7.47;;;1.40;65.60;;;;;;21010564;28;20504;-58
2023/02/01 08:19:12;;;;;;;11.95;8.05;;;1.60;65.40;;;;;;21009998;28;20044;-55
2023/02/01 08:29:13;;;;;;;17.45;8.90;;;1.80;65.20;;;;;;21011455;28;20534;-57
2023/02/01 08:39:15;;;;;;;11.85;6.97;;;2.10;64.80;;;;;;21006764;28;20045;-59
2023/02/01 08:49:16;;;;;;;16.13;6.90;;;2.50;64.30;;;;;;21006082;28;20126;-59
2023/02/01 08:59:18;;;;;;;12.55;6.97;;;2.80;63.70;;;;;;21007549;28;20505;-58
2023/02/01 09:09:19;;;;;;;12.10;6.63;;;3.20;63.00;;;;;;21005018;28;20463;-57
2023/02/01 09:19:21;;;;;;;15.38;8.88;;;3.60;62.40;;;;;;21003384;28;20045;-57
2023/02/01 09:29:23;;;;;;;4.68;3.20;;;4.10;61.90;;;;;;21002150;28;20044;-59
2023/02/01 09:39:24;;;;;;;5.30;2.85;;;4.80;61.90;;;;;;21002023;28;20178;-59
2023/02/01 09:49:31;;;;;;;4.72;2.92;;;5.30;60.70;;;;;;21000624;28;20143;-57
2023/02/01 09:59:44;;;;;;;4.57;2.42;;;5.70;59.50;;;;;;21000197;28;20128;-58
2023/02/01 10:10:00;;;;;;;6.53;3.30;;;6.00;58.70;;;;;;20998854;28;20048;-59
2023/02/01 10:20:28;;;;;;;3.88;2.65;;;6.20;58.30;;;;;;20999336;28;20433;-57
2023/02/01 10:30:38;;;;;;;6.10;2.70;;;6.60;57.40;;;;;;20997520;28;20048;-56
2023/02/01 10:40:40;;;;;;;5.72;3.33;;;6.80;56.60;;;;;;20997416;28;20049;-56
2023/02/01 10:51:06;;;;;;;4.22;2.90;;;7.20;55.70;;;;;;20996872;28;20048;-58
2023/02/01 11:01:10;;;;;;;4.43;3.05;;;7.40;55.00;;;;;;20993642;28;20052;-57
2023/02/01 11:11:12;;;;;;;4.65;2.72;;;7.60;54.50;;;;;;20994444;28;20056;-58
2023/02/01 11:21:15;;;;;;;8.40;3.83;;;7.80;53.50;;;;;;20995732;28;20053;-57
2023/02/01 11:31:18;;;;;;;4.47;3.35;;;8.00;53.00;;;;;;20995795;28;20053;-58
2023/02/01 11:41:26;;;;;;;7.82;3.92;;;8.30;52.30;;;;;;20995340;28;20048;-56
2023/02/01 11:51:32;;;;;;;4.85;2.78;;;8.40;52.00;;;;;;20995389;28;20099;-56
2023/02/01 12:02:08;;;;;;;6.03;2.90;;;8.70;51.40;;;;;;20995406;28;20118;-57
2023/02/01 12:12:22;;;;;;;4.35;2.85;;;8.90;51.10;;;;;;20995136;28;20105;-56
2023/02/01 12:23:03;;;;;;;4.50;2.75;;;9.20;50.50;;;;;;21007963;28;20055;-59
2023/02/01 12:33:32;;;;;;;10.07;8.55;;;9.40;49.40;;;;;;21008334;28;20048;-56
2023/02/01 12:43:46;;;;;;;6.95;3.60;;;9.60;49.30;;;;;;21006380;28;20044;-60
2023/02/01 12:53:57;;;;;;;7.68;4.30;;;9.80;48.70;;;;;;21073401;28;20100;-61
2023/02/01 13:04:25;;;;;;;4.60;2.80;;;10.00;48.10;;;;;;21088026;28;20063;-61
2023/02/01 13:14:40;;;;;;;5.55;3.58;;;10.20;47.50;;;;;;21088273;28;20109;-60
2023/02/01 13:24:59;;;;;;;5.47;3.13;;;10.40;47.70;;;;;;21086628;28;20113;-62
2023/02/01 13:35:23;;;;;;;4.57;3.17;;;10.50;47.00;;;;;;21086261;28;20044;-61
2023/02/01 13:45:42;;;;;;;6.10;3.65;;;10.70;45.50;;;;;;21085819;28;20064;-61
2023/02/01 13:55:46;;;;;;;5.07;3.55;;;10.80;45.90;;;;;;21085047;28;20044;-62
2023/02/01 14:05:51;;;;;;;5.35;3.30;;;10.80;45.30;;;;;;21084429;28;20052;-58
2023/02/01 14:16:13;;;;;;;6.72;3.50;;;10.90;45.00;;;;;;21083651;28;20143;-59
2023/02/01 14:26:19;;;;;;;6.38;3.78;;;11.10;44.60;;;;;;21081279;28;20048;-57
2023/02/01 14:36:22;;;;;;;6.18;3.85;;;11.20;44.40;;;;;;21080832;28;20048;-57
2023/02/01 14:47:01;;;;;;;6.47;3.58;;;11.20;44.60;;;;;;21081534;28;20052;-58
2023/02/01 14:57:04;;;;;;;6.30;3.70;;;11.20;44.40;;;;;;21079641;28;20055;-58
2023/02/01 15:07:11;;;;;;;6.13;3.22;;;11.20;44.10;;;;;;21079649;28;20056;-59
2023/02/01 15:17:23;;;;;;;8.65;4.60;;;11.20;44.40;;;;;;21080989;28;20381;-60
2023/02/01 15:27:26;;;;;;;11.18;4.70;;;11.30;44.60;;;;;;21078648;28;20077;-61
2023/02/01 15:37:28;;;;;;;6.90;4.32;;;11.30;44.20;;;;;;21079519;28;20044;-59
2023/02/01 15:47:31;;;;;;;8.45;4.78;;;11.20;44.20;;;;;;21080048;28;20048;-58
2023/02/01 15:57:35;;;;;;;9.45;4.57;;;11.20;44.40;;;;;;21094925;28;20055;-58
2023/02/01 16:07:37;;;;;;;9.67;5.10;;;11.20;44.80;;;;;;21093685;28;20052;-58
2023/02/01 16:17:39;;;;;;;6.47;4.50;;;11.10;44.60;;;;;;21092662;28;20228;-58
2023/02/01 16:27:40;;;;;;;9.18;4.82;;;11.00;45.20;;;;;;21093283;28;20055;-58
2023/02/01 16:37:41;;;;;;;8.20;4.78;;;10.90;45.50;;;;;;21092075;28;20447;-59
2023/02/01 16:47:52;;;;;;;14.48;6.97;;;10.90;45.40;;;;;;21089544;28;20468;-57
2023/02/01 16:57:53;;;;;;;9.23;6.30;;;10.90;45.60;;;;;;21088847;28;20048;-59
2023/02/01 17:07:59;;;;;;;11.38;7.38;;;11.00;45.90;;;;;;21088276;28;20109;-59
2023/02/01 17:18:01;;;;;;;11.52;7.80;;;10.80;46.90;;;;;;21086318;28;20102;-58
2023/02/01 17:28:03;;;;;;;13.77;7.72;;;10.70;46.70;;;;;;21085462;28;20066;-61
2023/02/01 17:38:10;;;;;;;15.93;7.82;;;10.40;47.20;;;;;;21062567;28;20052;-58
2023/02/01 17:48:12;;;;;;;17.88;8.85;;;10.40;48.50;;;;;;20923830;28;20492;-58
2023/02/01 17:58:15;;;;;;;18.40;10.18;;;10.20;49.10;;;;;;20922586;28;20451;-58
2023/02/01 18:08:20;;;;;;;18.60;10.45;;;10.10;49.60;;;;;;20943844;28;20050;-55
2023/02/01 18:18:22;;;;;;;18.77;9.57;;;10.00;50.20;;;;;;21009569;28;20052;-68
2023/02/01 18:28:26;;;;;;;25.98;12.45;;;10.30;53.80;;;;;;21001735;28;20140;-59
2023/02/01 18:38:28;;;;;;;25.93;13.20;;;10.10;50.80;;;;;;21007568;28;20051;-64
2023/02/01 18:48:41;;;;;;;27.08;15.55;;;9.90;50.40;;;;;;20997986;28;20052;-68
2023/02/01 18:58:43;;;;;;;34.35;15.82;;;9.70;51.10;;;;;;20978499;28;20052;-58
2023/02/01 19:08:46;;;;;;;28.85;16.65;;;10.10;58.40;;;;;;20917081;28;20067;-58
2023/02/01 19:18:51;;;;;;;41.08;19.85;;;10.00;51.70;;;;;;20914181;28;20045;-60
2023/02/01 19:28:52;;;;;;;;;;;9.70;51.30;;;;;;20929077;28;20477;-62
2023/02/01 19:38:54;;;;;;;32.20;17.10;;;9.40;50.90;;;;;;20931112;28;20395;-67
2023/02/01 19:48:55;;;;;;;29.08;15.18;;;9.30;51.80;;;;;;20927926;28;20135;-69
2023/02/01 19:58:57;;;;;;;53.22;23.50;;;9.20;52.30;;;;;;20928070;28;20049;-62
2023/02/01 20:08:59;;;;;;;17.25;9.15;;;9.00;53.30;;;;;;20926927;28;20084;-65
2023/02/01 20:19:00;;;;;;;9.20;5.18;;;8.50;54.10;;;;;;20924521;28;20045;-70
2023/02/01 20:29:02;;;;;;;9.63;5.80;;;8.10;53.90;;;;;;20925524;28;20459;-70
2023/02/01 20:39:09;;;;;;;9.27;5.65;;;7.70;54.40;;;;;;20923957;28;20076;-59
2023/02/01 20:49:10;;;;;;;11.48;5.45;;;7.50;54.70;;;;;;20923815;28;20059;-70
2023/02/01 20:59:13;;;;;;;8.48;4.40;;;7.30;54.70;;;;;;20923110;28;20049;-66
2023/02/01 21:09:15;;;;;;;6.28;3.70;;;7.20;55.10;;;;;;20922230;28;20138;-58
2023/02/01 21:19:16;;;;;;;9.52;5.63;;;7.00;55.50;;;;;;20921392;28;20049;-58
2023/02/01 21:29:18;;;;;;;9.43;4.80;;;6.90;55.80;;;;;;20921868;28;20049;-68
2023/02/01 21:39:20;;;;;;;10.63;6.03;;;6.70;56.00;;;;;;20920097;28;20083;-58
2023/02/01 21:49:24;;;;;;;17.73;9.93;;;6.50;56.80;;;;;;20919684;28;20473;-70
2023/02/01 21:59:26;;;;;;;12.07;4.60;;;6.20;57.70;;;;;;20927243;28;20482;-58
2023/02/01 22:09:28;;;;;;;15.73;10.88;;;6.10;57.50;;;;;;20918998;28;20057;-58
2023/02/01 22:19:29;;;;;;;8.82;5.57;;;6.10;57.40;;;;;;20919106;28;20080;-66
2023/02/01 22:29:31;;;;;;;8.45;5.25;;;6.20;57.50;;;;;;20916351;28;20063;-68
2023/02/01 22:39:32;;;;;;;9.75;5.55;;;6.00;58.00;;;;;;20915839;28;20071;-66
2023/02/01 22:49:34;;;;;;;11.40;5.55;;;5.80;58.30;;;;;;20914422;28;20053;-61
2023/02/01 22:59:36;;;;;;;10.07;5.18;;;5.60;58.60;;;;;;20915294;28;20048;-72
2023/02/01 23:09:37;;;;;;;11.18;5.28;;;5.50;58.80;;;;;;20913572;28;20092;-60
2023/02/01 23:19:40;;;;;;;10.25;5.53;;;5.40;58.90;;;;;;20913332;28;20052;-63
2023/02/01 23:29:41;;;;;;;8.02;5.13;;;5.20;59.00;;;;;;20916022;28;20053;-59
2023/02/01 23:39:42;;;;;;;9.57;5.32;;;5.20;59.20;;;;;;20916635;28;20049;-60
2023/02/01 23:49:44;;;;;;;8.90;4.95;;;5.10;59.40;;;;;;20961813;28;20055;-60
2023/02/01 23:59:47;;;;;;;7.03;3.97;;;5.00;59.50;;;;;;20917058;28;20135;-64
